Time;durP1;ratioP1;P1;durP2;ratioP2;P2;SDS_P1;SDS_P2;PMS_P1;PMS_P2;Temp;Humidity;BMP_temperature;BMP_pressure;BME280_temperature;BME280_humidity;BME280_pressure;Samples;Min_cycle;Max_cycle;Signal;HPM_P1;HPM_P2
2021/01/06 00:00:43;;;;;;;36.67;16.38;;;3.90;99.90;;;;;;5104533;27;20136;-67
2021/01/06 00:03:15;;;;;;;37.88;18.08;;;3.90;99.90;;;;;;5099657;27;20042;-65
2021/01/06 00:05:42;;;;;;;43.42;17.88;;;3.90;99.90;;;;;;5107488;28;20042;-68
2021/01/06 00:08:08;;;;;;;37.80;18.77;;;3.90;99.90;;;;;;5108975;28;20042;-67
2021/01/06 00:10:35;;;;;;;39.42;18.13;;;3.90;99.90;;;;;;5109499;28;20048;-67
2021/01/06 00:13:02;;;;;;;36.63;19.95;;;3.90;99.90;;;;;;5107402;28;20050;-66
2021/01/06 00:15:32;;;;;;;45.78;19.20;;;3.90;99.90;;;;;;5107027;28;20455;-68
2021/01/06 00:17:57;;;;;;;40.28;18.35;;;3.90;99.90;;;;;;5109765;28;20180;-66
2021/01/06 00:20:25;;;;;;;35.92;18.02;;;3.80;99.90;;;;;;5110451;28;20565;-70
2021/01/06 00:22:52;;;;;;;37.10;18.02;;;3.90;99.90;;;;;;5103620;28;20031;-67
2021/01/06 00:25:23;;;;;;;37.70;18.55;;;3.80;99.90;;;;;;5106988;28;20083;-68
2021/01/06 00:27:48;;;;;;;33.15;16.42;;;3.80;99.90;;;;;;5120760;28;20030;-67
2021/01/06 00:30:25;;;;;;;34.38;16.55;;;3.80;99.90;;;;;;5110517;28;20043;-66
2021/01/06 00:32:51;;;;;;;35.58;17.42;;;3.80;99.90;;;;;;5114172;27;20027;-67
2021/01/06 00:35:19;;;;;;;36.28;18.33;;;3.80;99.90;;;;;;5107023;28;20366;-69
2021/01/06 00:37:46;;;;;;;34.63;17.40;;;3.80;99.90;;;;;;5109568;28;20019;-67
2021/01/06 00:40:12;;;;;;;34.67;16.63;;;3.80;99.90;;;;;;5108068;28;20149;-67
2021/01/06 00:42:38;;;;;;;36.15;17.40;;;3.80;99.90;;;;;;5105167;28;20106;-66
2021/01/06 00:45:06;;;;;;;31.10;15.95;;;3.90;99.90;;;;;;5108095;28;20031;-67
2021/01/06 00:47:32;;;;;;;31.60;16.15;;;3.90;99.90;;;;;;5109297;28;20019;-69
2021/01/06 00:49:57;;;;;;;31.55;15.82;;;3.90;99.90;;;;;;5108698;28;20034;-66
2021/01/06 00:52:23;;;;;;;34.40;17.67;;;3.90;99.90;;;;;;5102895;28;20031;-67
2021/01/06 00:54:49;;;;;;;32.17;16.77;;;3.90;99.90;;;;;;5097631;28;20031;-68
2021/01/06 00:57:16;;;;;;;29.10;14.88;;;3.90;99.90;;;;;;5108260;28;20062;-66
2021/01/06 00:59:44;;;;;;;34.38;14.52;;;3.80;99.90;;;;;;5112140;28;20020;-67
2021/01/06 01:02:11;;;;;;;28.85;15.32;;;3.80;99.90;;;;;;5104144;28;20400;-68
2021/01/06 01:04:37;;;;;;;33.50;14.70;;;3.80;99.90;;;;;;5098220;28;20171;-67
2021/01/06 01:07:02;;;;;;;31.48;15.18;;;3.90;99.90;;;;;;5091095;28;20111;-69
2021/01/06 01:09:28;;;;;;;31.15;15.88;;;3.80;99.90;;;;;;5092100;28;20028;-67
2021/01/06 01:11:53;;;;;;;32.75;15.40;;;3.90;99.90;;;;;;5097544;28;20035;-68
2021/01/06 01:14:19;;;;;;;33.20;15.65;;;3.90;99.90;;;;;;5111826;27;20034;-67
2021/01/06 01:16:46;;;;;;;32.30;15.60;;;3.80;99.90;;;;;;5112383;27;20047;-67
2021/01/06 01:19:12;;;;;;;35.05;16.80;;;3.80;99.90;;;;;;5112483;27;20030;-68
2021/01/06 01:21:39;;;;;;;33.53;16.75;;;3.80;99.90;;;;;;5111535;27;20043;-68
2021/01/06 01:24:12;;;;;;;35.38;15.95;;;3.80;99.90;;;;;;5103792;28;20477;-68
2021/01/06 01:26:39;;;;;;;37.60;16.05;;;3.80;99.90;;;;;;5117065;27;20036;-67
2021/01/06 01:29:06;;;;;;;34.70;16.48;;;3.70;99.90;;;;;;5099800;28;20608;-67
2021/01/06 01:31:34;;;;;;;32.55;16.33;;;3.70;99.90;;;;;;5094029;28;20039;-68
2021/01/06 01:34:00;;;;;;;33.72;16.00;;;3.80;99.90;;;;;;5111755;28;20019;-67
2021/01/06 01:36:27;;;;;;;33.20;16.58;;;3.80;99.90;;;;;;5110872;27;20020;-69
2021/01/06 01:38:52;;;;;;;33.88;16.65;;;3.80;99.90;;;;;;5112312;27;20176;-66
2021/01/06 01:41:27;;;;;;;34.95;16.90;;;3.70;99.90;;;;;;5121467;27;20486;-67
2021/01/06 01:43:53;;;;;;;30.45;15.00;;;3.70;99.90;;;;;;5100965;28;20046;-67
2021/01/06 01:46:45;;;;;;;31.38;16.02;;;3.80;99.90;;;;;;5122792;27;20388;-69
2021/01/06 01:49:21;;;;;;;30.25;14.82;;;3.80;99.90;;;;;;5069084;28;20376;-67
2021/01/06 01:51:54;;;;;;;37.75;16.05;;;3.70;99.90;;;;;;5109757;28;20027;-66
2021/01/06 01:54:21;;;;;;;28.35;15.30;;;3.70;99.90;;;;;;5110821;27;20027;-69
2021/01/06 01:56:54;;;;;;;30.20;14.63;;;3.70;99.90;;;;;;5109413;27;20035;-68
2021/01/06 01:59:26;;;;;;;;;;;3.70;99.90;;;;;;5113508;27;20023;-68
2021/01/06 02:01:55;;;;;;;30.73;14.23;;;3.60;99.90;;;;;;5092890;28;20003;-69
2021/01/06 02:04:54;;;;;;;35.45;16.65;;;3.70;99.90;;;;;;5098101;27;20044;-70
2021/01/06 02:07:25;;;;;;;30.88;15.20;;;3.60;99.90;;;;;;5094463;28;20027;-69
2021/01/06 02:10:33;;;;;;;32.00;14.23;;;3.60;99.90;;;;;;5089862;28;20484;-71
2021/01/06 02:13:18;;;;;;;26.85;12.60;;;3.50;99.90;;;;;;5087846;28;20047;-73
2021/01/06 02:16:11;;;;;;;29.73;11.90;;;3.50;99.90;;;;;;5078391;28;20031;-70
2021/01/06 02:18:38;;;;;;;26.45;12.75;;;3.40;99.90;;;;;;5089589;28;20070;-68
2021/01/06 02:21:28;;;;;;;38.75;16.75;;;3.30;99.90;;;;;;5090601;28;20029;-67
2021/01/06 02:24:16;;;;;;;35.58;16.80;;;3.30;99.90;;;;;;5085833;28;20024;-77
2021/01/06 02:26:45;;;;;;;39.72;17.13;;;3.30;99.90;;;;;;5090065;28;20032;-75
2021/01/06 02:29:11;;;;;;;37.70;17.05;;;3.30;99.90;;;;;;5096334;28;20038;-73
2021/01/06 02:31:37;;;;;;;41.75;17.67;;;3.40;99.90;;;;;;5098043;28;20039;-72
2021/01/06 02:34:03;;;;;;;40.58;17.35;;;3.40;99.90;;;;;;5091916;28;20032;-73
2021/01/06 02:36:29;;;;;;;37.17;16.75;;;3.40;99.90;;;;;;5075934;28;20078;-76
2021/01/06 02:38:55;;;;;;;38.17;17.08;;;3.50;99.90;;;;;;5089490;28;20032;-73
2021/01/06 02:41:21;;;;;;;33.33;15.05;;;3.40;99.90;;;;;;5077533;28;20098;-73
2021/01/06 02:43:49;;;;;;;30.85;15.90;;;3.40;99.90;;;;;;5090679;28;20067;-72
2021/01/06 02:46:15;;;;;;;34.58;15.95;;;3.40;99.90;;;;;;5095552;28;20008;-72
2021/01/06 02:48:42;;;;;;;39.38;16.70;;;3.40;99.90;;;;;;5090781;28;20032;-73
2021/01/06 02:51:21;;;;;;;35.22;16.70;;;3.30;99.90;;;;;;5087434;28;20086;-73
2021/01/06 02:54:08;;;;;;;37.80;16.48;;;3.40;99.90;;;;;;5083793;28;20099;-72
2021/01/06 02:56:36;;;;;;;32.90;15.00;;;3.40;99.90;;;;;;5099077;28;20012;-72
2021/01/06 02:59:04;;;;;;;39.47;16.88;;;3.40;99.90;;;;;;5096083;28;20130;-73
2021/01/06 03:01:35;;;;;;;34.03;16.70;;;3.40;99.90;;;;;;5085926;28;20059;-72
2021/01/06 03:04:01;;;;;;;30.92;16.05;;;3.30;99.90;;;;;;5093600;27;20040;-72
2021/01/06 03:06:58;;;;;;;33.40;15.55;;;3.40;99.90;;;;;;5107264;27;20492;-73
2021/01/06 03:09:40;;;;;;;33.03;16.50;;;3.40;99.90;;;;;;5103765;28;20039;-72
2021/01/06 03:12:10;;;;;;;32.55;15.43;;;3.40;99.90;;;;;;5100513;28;20382;-71
2021/01/06 03:14:38;;;;;;;31.65;15.40;;;3.40;99.90;;;;;;5126791;27;20015;-72
2021/01/06 03:17:05;;;;;;;35.70;15.35;;;3.30;99.90;;;;;;5110289;27;20034;-72
2021/01/06 03:19:35;;;;;;;31.45;15.13;;;3.30;99.90;;;;;;5108692;28;20031;-70
2021/01/06 03:22:06;;;;;;;34.63;15.68;;;3.30;99.90;;;;;;5104435;28;20048;-70
2021/01/06 03:24:41;;;;;;;32.97;14.63;;;3.40;99.90;;;;;;5090616;28;20020;-70
2021/01/06 03:27:09;;;;;;;30.83;14.50;;;3.30;99.90;;;;;;5110254;28;20459;-71
2021/01/06 03:29:36;;;;;;;29.17;14.52;;;3.30;99.90;;;;;;5089992;28;20222;-71
2021/01/06 03:32:11;;;;;;;25.08;13.90;;;3.30;99.90;;;;;;5107327;28;20115;-70
2021/01/06 03:34:43;;;;;;;25.52;14.20;;;3.20;99.90;;;;;;5096409;28;20028;-73
2021/01/06 03:37:21;;;;;;;27.33;15.00;;;3.30;99.90;;;;;;5124445;27;20051;-70
2021/01/06 03:39:53;;;;;;;26.30;14.30;;;3.20;99.90;;;;;;5107970;28;20032;-72
2021/01/06 03:42:19;;;;;;;26.00;13.85;;;3.20;99.90;;;;;;5111927;27;20030;-69
2021/01/06 03:44:46;;;;;;;24.80;14.02;;;3.10;99.90;;;;;;5109631;28;20460;-70
2021/01/06 03:47:15;;;;;;;27.73;13.65;;;3.10;99.90;;;;;;5113444;27;20019;-71
2021/01/06 03:50:14;;;;;;;25.13;12.93;;;3.10;99.90;;;;;;5105854;28;20031;-74
2021/01/06 03:52:56;;;;;;;25.95;13.38;;;3.20;99.90;;;;;;5083713;28;20039;-71
2021/01/06 03:55:54;;;;;;;25.38;13.82;;;3.20;99.90;;;;;;5109752;28;20023;-70
2021/01/06 03:59:01;;;;;;;28.08;14.48;;;3.10;99.90;;;;;;5108785;28;20632;-72
2021/01/06 04:01:57;;;;;;;31.20;14.80;;;3.10;99.90;;;;;;5101395;28;20051;-71
2021/01/06 04:04:28;;;;;;;26.70;13.93;;;3.10;99.90;;;;;;5096758;28;20416;-70
2021/01/06 04:06:54;;;;;;;26.17;14.00;;;3.00;99.90;;;;;;5109063;28;20035;-70
2021/01/06 04:09:38;;;;;;;27.25;14.60;;;3.00;99.90;;;;;;5100451;28;20030;-70
2021/01/06 04:12:14;;;;;;;28.45;14.23;;;3.00;99.90;;;;;;5102756;28;20150;-71
2021/01/06 04:14:41;;;;;;;31.08;13.35;;;3.00;99.90;;;;;;5109359;28;20019;-70
2021/01/06 04:17:27;;;;;;;32.00;14.60;;;3.00;99.90;;;;;;5118891;28;20034;-72
2021/01/06 04:20:00;;;;;;;27.10;14.25;;;3.00;99.90;;;;;;5090025;28;20498;-70
2021/01/06 04:22:47;;;;;;;23.15;13.25;;;3.00;99.90;;;;;;5102002;28;20249;-69
2021/01/06 04:25:28;;;;;;;32.08;13.68;;;3.00;99.90;;;;;;5110914;28;20051;-70
2021/01/06 04:28:15;;;;;;;26.63;13.88;;;3.00;99.90;;;;;;5109274;28;20034;-70
2021/01/06 04:30:53;;;;;;;26.45;13.80;;;2.90;99.90;;;;;;5124397;27;20487;-71
2021/01/06 04:33:25;;;;;;;25.30;12.80;;;2.90;99.90;;;;;;5109795;27;20020;-71
2021/01/06 04:35:54;;;;;;;24.45;13.27;;;2.90;99.90;;;;;;5119577;27;20042;-69
2021/01/06 04:38:27;;;;;;;21.83;12.15;;;2.90;99.90;;;;;;5128159;27;20118;-72
2021/01/06 04:40:57;;;;;;;25.35;13.32;;;2.90;99.90;;;;;;5124286;27;20034;-71
2021/01/06 04:43:54;;;;;;;23.33;13.07;;;2.90;99.90;;;;;;5124894;27;20011;-70
2021/01/06 04:46:37;;;;;;;26.35;13.32;;;2.90;99.90;;;;;;5125904;27;20028;-69
2021/01/06 04:49:24;;;;;;;26.58;13.30;;;2.90;99.90;;;;;;5123602;27;20468;-69
2021/01/06 04:52:18;;;;;;;27.35;13.73;;;2.80;99.90;;;;;;5118155;27;20099;-70
2021/01/06 04:55:05;;;;;;;22.77;13.13;;;2.80;99.90;;;;;;5121123;27;20112;-71
2021/01/06 04:57:52;;;;;;;26.50;13.50;;;2.80;99.90;;;;;;5124631;27;20075;-70
2021/01/06 05:00:47;;;;;;;27.02;12.43;;;2.80;99.90;;;;;;5123083;27;20118;-71
2021/01/06 05:03:41;;;;;;;25.83;14.48;;;2.80;99.90;;;;;;5111274;27;20040;-70
2021/01/06 05:06:18;;;;;;;24.92;13.00;;;2.80;99.90;;;;;;5129741;27;20023;-70
2021/01/06 05:08:50;;;;;;;26.17;13.82;;;2.70;99.90;;;;;;5127183;27;20391;-69
2021/01/06 05:11:23;;;;;;;;;;;2.70;99.90;;;;;;5117172;27;20040;-69
2021/01/06 05:13:52;;;;;;;;;;;2.80;99.90;;;;;;5127924;27;19914;-70
2021/01/06 05:16:27;;;;;;;23.13;12.57;;;2.80;99.90;;;;;;5124935;27;19911;-69
2021/01/06 05:18:53;;;;;;;25.58;13.55;;;2.70;99.90;;;;;;5122592;27;20019;-69
2021/01/06 05:21:22;;;;;;;28.63;13.57;;;2.80;99.90;;;;;;5120512;27;20112;-68
2021/01/06 05:24:00;;;;;;;26.95;12.25;;;2.70;99.90;;;;;;5122308;27;20631;-68
2021/01/06 05:26:26;;;;;;;23.80;11.40;;;2.80;99.90;;;;;;5121909;27;20019;-70
2021/01/06 05:28:54;;;;;;;24.90;12.48;;;2.80;99.90;;;;;;5127710;27;20083;-71
2021/01/06 05:31:19;;;;;;;25.73;12.80;;;2.80;99.90;;;;;;5111706;27;20039;-70
2021/01/06 05:33:49;;;;;;;21.17;11.73;;;2.70;99.90;;;;;;5124845;27;20025;-69
2021/01/06 05:36:33;;;;;;;26.70;13.27;;;2.70;99.90;;;;;;5110415;27;20080;-71
2021/01/06 05:39:20;;;;;;;20.95;10.93;;;2.70;99.90;;;;;;5110617;27;20035;-71
2021/01/06 05:41:49;;;;;;;23.58;12.45;;;2.70;99.90;;;;;;5099004;28;20153;-70
2021/01/06 05:44:15;;;;;;;23.95;12.63;;;2.70;99.90;;;;;;5111327;28;20028;-68
2021/01/06 05:46:45;;;;;;;28.40;12.52;;;2.70;99.90;;;;;;5118856;27;20236;-69
2021/01/06 05:49:23;;;;;;;22.77;11.93;;;2.80;99.90;;;;;;5116703;27;20247;-71
2021/01/06 05:51:55;;;;;;;28.15;13.88;;;2.80;99.90;;;;;;5105722;27;20101;-69
2021/01/06 05:54:34;;;;;;;23.08;12.18;;;2.70;99.90;;;;;;5111499;27;20103;-70
2021/01/06 05:57:50;;;;;;;22.13;11.77;;;2.70;99.90;;;;;;5122777;27;20055;-70
2021/01/06 06:00:39;;;;;;;25.42;12.52;;;2.70;99.90;;;;;;5039706;28;20083;-69
2021/01/06 06:03:23;;;;;;;22.15;12.32;;;2.80;99.90;;;;;;5069090;27;20118;-69
2021/01/06 06:06:02;;;;;;;23.58;12.40;;;2.80;99.90;;;;;;5077581;28;20115;-68
2021/01/06 06:08:59;;;;;;;24.83;12.68;;;2.70;99.90;;;;;;5085877;28;20043;-70
2021/01/06 06:12:06;;;;;;;25.15;12.90;;;2.70;99.90;;;;;;5094697;28;20042;-68
2021/01/06 06:15:30;;;;;;;24.30;12.45;;;2.70;99.90;;;;;;5076162;28;20024;-71
2021/01/06 06:18:18;;;;;;;24.45;12.90;;;2.70;99.90;;;;;;4989181;28;20497;-70
2021/01/06 06:21:16;;;;;;;23.65;12.23;;;2.70;99.90;;;;;;4990732;28;20592;-70
2021/01/06 06:23:51;;;;;;;24.50;13.38;;;2.80;99.90;;;;;;5085124;28;20535;-69
2021/01/06 06:26:55;;;;;;;24.88;12.57;;;2.70;99.90;;;;;;5081957;28;20027;-69
2021/01/06 06:29:43;;;;;;;27.30;13.35;;;2.70;99.90;;;;;;5097542;28;20020;-68
2021/01/06 06:32:10;;;;;;;26.08;12.82;;;2.60;99.90;;;;;;5091663;28;20039;-70
2021/01/06 06:34:39;;;;;;;24.77;14.15;;;2.60;99.90;;;;;;5097113;28;20056;-68
2021/01/06 06:37:19;;;;;;;25.15;12.82;;;2.60;99.90;;;;;;5098314;28;20138;-68
2021/01/06 06:40:06;;;;;;;25.17;12.88;;;2.60;99.90;;;;;;5103006;28;20111;-69
2021/01/06 06:42:49;;;;;;;21.58;13.18;;;2.70;99.90;;;;;;5098316;28;20088;-68
2021/01/06 06:46:02;;;;;;;22.25;12.57;;;2.70;99.90;;;;;;5097531;28;20028;-69
2021/01/06 06:48:38;;;;;;;25.05;12.93;;;2.60;99.90;;;;;;5080240;28;20072;-68
2021/01/06 06:51:22;;;;;;;22.88;12.15;;;2.70;99.90;;;;;;5088963;28;20088;-69
2021/01/06 06:54:15;;;;;;;24.45;11.90;;;2.70;99.90;;;;;;5090910;28;20024;-69
2021/01/06 06:56:59;;;;;;;22.13;12.57;;;2.70;99.90;;;;;;5094652;28;20118;-69
2021/01/06 06:59:27;;;;;;;25.65;12.48;;;2.70;99.90;;;;;;5085261;28;20169;-66
2021/01/06 07:02:00;;;;;;;27.23;12.77;;;2.70;99.90;;;;;;5090369;28;20614;-68
2021/01/06 07:04:38;;;;;;;26.10;13.57;;;2.70;99.90;;;;;;5103933;28;20059;-68
2021/01/06 07:07:04;;;;;;;29.60;14.93;;;2.60;99.90;;;;;;5123879;27;20080;-69
2021/01/06 07:09:34;;;;;;;23.52;12.90;;;2.60;99.90;;;;;;5107866;28;20040;-68
2021/01/06 07:12:10;;;;;;;29.50;13.68;;;2.70;99.90;;;;;;5111674;27;20031;-69
2021/01/06 07:14:39;;;;;;;32.17;13.50;;;2.70;99.90;;;;;;5111825;27;20026;-69
2021/01/06 07:17:14;;;;;;;25.13;12.77;;;2.60;99.90;;;;;;5116897;27;20024;-68
2021/01/06 07:19:49;;;;;;;24.35;11.93;;;2.60;99.90;;;;;;5094085;28;20027;-69
2021/01/06 07:22:30;;;;;;;27.08;12.30;;;2.60;99.90;;;;;;5110265;28;20024;-70
2021/01/06 07:25:11;;;;;;;25.58;12.07;;;2.60;99.90;;;;;;5110342;28;20028;-69
2021/01/06 07:27:38;;;;;;;25.40;12.10;;;2.70;99.90;;;;;;5109832;28;20062;-70
2021/01/06 07:30:04;;;;;;;23.45;12.45;;;2.70;99.90;;;;;;5109256;28;20047;-68
2021/01/06 07:32:42;;;;;;;24.98;13.38;;;2.60;99.90;;;;;;5109212;28;20028;-67
2021/01/06 07:35:28;;;;;;;22.20;12.95;;;2.60;99.90;;;;;;5096801;28;20054;-68
2021/01/06 07:38:02;;;;;;;25.33;12.43;;;2.50;99.90;;;;;;5109263;28;20023;-68
2021/01/06 07:40:40;;;;;;;25.17;12.50;;;2.60;99.90;;;;;;5109976;28;20110;-68
2021/01/06 07:43:17;;;;;;;19.70;11.13;;;2.50;99.90;;;;;;5108192;28;20477;-66
2021/01/06 07:46:03;;;;;;;22.80;11.88;;;2.40;99.90;;;;;;5109582;28;20076;-70
2021/01/06 07:48:38;;;;;;;24.15;12.60;;;2.40;99.90;;;;;;5107758;28;20092;-69
2021/01/06 07:51:41;;;;;;;20.52;10.55;;;2.40;99.90;;;;;;5087342;28;20040;-69
2021/01/06 07:54:32;;;;;;;21.23;12.02;;;2.40;99.90;;;;;;5099680;28;20020;-69
2021/01/06 07:57:01;;;;;;;18.20;10.25;;;2.50;99.90;;;;;;5109340;27;20118;-69
2021/01/06 07:59:38;;;;;;;22.42;11.27;;;2.50;99.90;;;;;;5103864;28;20012;-68
2021/01/06 08:02:13;;;;;;;23.48;10.80;;;2.40;99.90;;;;;;5106927;28;20069;-68
2021/01/06 08:05:01;;;;;;;27.45;13.13;;;2.40;99.90;;;;;;5110317;28;20066;-69
2021/01/06 08:07:27;;;;;;;23.55;12.88;;;2.40;99.90;;;;;;5108389;28;20122;-68
2021/01/06 08:09:53;;;;;;;22.70;12.40;;;2.50;99.90;;;;;;5109330;28;20020;-69
2021/01/06 08:12:33;;;;;;;26.63;12.90;;;2.50;99.90;;;;;;5108562;28;20042;-69
2021/01/06 08:15:17;;;;;;;22.73;12.23;;;2.40;99.90;;;;;;5109352;28;20133;-67
2021/01/06 08:18:03;;;;;;;24.10;13.60;;;2.50;99.90;;;;;;5109040;28;20118;-69
2021/01/06 08:20:37;;;;;;;24.55;13.00;;;2.50;99.90;;;;;;5094342;28;20020;-68
2021/01/06 08:23:24;;;;;;;22.67;12.13;;;2.40;99.90;;;;;;5099844;28;20036;-66
2021/01/06 08:26:01;;;;;;;24.75;12.75;;;2.40;99.90;;;;;;5106441;28;20705;-69
2021/01/06 08:28:30;;;;;;;23.23;11.23;;;2.40;99.90;;;;;;5110781;28;20020;-69
2021/01/06 08:31:08;;;;;;;21.65;12.40;;;2.40;99.90;;;;;;5124519;28;20039;-68
2021/01/06 08:33:45;;;;;;;23.15;12.13;;;2.40;99.90;;;;;;5109400;28;20058;-68
2021/01/06 08:36:19;;;;;;;25.48;12.43;;;2.40;99.90;;;;;;5108869;28;20110;-69
2021/01/06 08:38:45;;;;;;;18.30;11.20;;;2.40;99.90;;;;;;5109527;28;20031;-68
2021/01/06 08:41:20;;;;;;;23.17;12.18;;;2.40;99.90;;;;;;5107580;28;20606;-68
2021/01/06 08:43:47;;;;;;;24.20;11.68;;;2.40;99.90;;;;;;5109060;28;20020;-67
2021/01/06 08:46:41;;;;;;;23.50;11.73;;;2.30;99.90;;;;;;5106288;28;20027;-69
2021/01/06 08:49:25;;;;;;;23.23;12.30;;;2.40;99.90;;;;;;5106126;28;20024;-68
2021/01/06 08:51:56;;;;;;;21.95;11.30;;;2.30;99.90;;;;;;5107501;28;20036;-67
2021/01/06 08:54:31;;;;;;;22.77;11.30;;;2.40;99.90;;;;;;5107853;28;20061;-68
2021/01/06 08:57:21;;;;;;;17.95;10.50;;;2.30;99.90;;;;;;5108354;28;20023;-70
2021/01/06 08:59:47;;;;;;;18.98;10.40;;;2.30;99.90;;;;;;5099655;28;20036;-70
2021/01/06 09:02:21;;;;;;;21.48;11.40;;;2.20;99.90;;;;;;5108235;28;20053;-68
2021/01/06 09:04:46;;;;;;;22.88;11.93;;;2.30;99.90;;;;;;5088568;28;20055;-67
2021/01/06 09:07:25;;;;;;;21.98;11.32;;;2.30;99.90;;;;;;5087396;28;20020;-68
2021/01/06 09:10:23;;;;;;;20.15;11.02;;;2.30;99.90;;;;;;5070163;28;20040;-71
2021/01/06 09:13:13;;;;;;;23.05;11.32;;;2.40;99.90;;;;;;5078036;28;20153;-69
2021/01/06 09:15:53;;;;;;;18.55;10.65;;;2.30;99.90;;;;;;5086432;28;20024;-67
2021/01/06 09:18:34;;;;;;;24.35;10.98;;;2.40;99.90;;;;;;5075396;28;20504;-67
2021/01/06 09:21:29;;;;;;;20.85;10.98;;;2.40;99.90;;;;;;5074085;28;20167;-69
2021/01/06 09:24:28;;;;;;;20.08;10.45;;;2.40;99.90;;;;;;5095156;28;20473;-70
2021/01/06 09:27:01;;;;;;;16.60;9.35;;;2.40;99.90;;;;;;5060839;28;20040;-67
2021/01/06 09:29:28;;;;;;;18.30;10.07;;;2.40;99.90;;;;;;5074366;28;20038;-67
2021/01/06 09:31:57;;;;;;;22.05;10.48;;;2.40;99.90;;;;;;5090824;28;20047;-68
2021/01/06 09:34:37;;;;;;;19.48;11.13;;;2.40;99.90;;;;;;5091438;28;20028;-68
2021/01/06 09:37:05;;;;;;;20.17;10.95;;;2.30;99.90;;;;;;5073170;28;20085;-68
2021/01/06 09:39:34;;;;;;;18.10;10.40;;;2.40;99.90;;;;;;5090371;28;20151;-67
2021/01/06 09:42:04;;;;;;;17.77;10.18;;;2.40;99.90;;;;;;5100494;28;20020;-69
2021/01/06 09:44:31;;;;;;;20.30;10.75;;;2.40;99.90;;;;;;5089074;28;20027;-68
2021/01/06 09:47:02;;;;;;;26.20;10.75;;;2.40;99.90;;;;;;5073154;28;20044;-70
2021/01/06 09:49:44;;;;;;;16.83;10.35;;;2.50;99.90;;;;;;5104133;28;20039;-67
2021/01/06 09:52:38;;;;;;;21.95;10.57;;;2.50;99.90;;;;;;5099444;28;20127;-67
2021/01/06 09:55:06;;;;;;;23.38;9.70;;;2.60;99.90;;;;;;5109294;28;20032;-69
2021/01/06 09:57:33;;;;;;;24.70;11.43;;;2.70;99.90;;;;;;5099849;28;20036;-68
2021/01/06 10:00:07;;;;;;;25.27;11.82;;;2.60;99.90;;;;;;5091207;28;20028;-66
2021/01/06 10:02:36;;;;;;;21.90;12.00;;;2.60;99.90;;;;;;5082961;28;20043;-67
2021/01/06 10:05:38;;;;;;;19.05;10.25;;;2.70;99.90;;;;;;5082476;28;20062;-68
2021/01/06 10:08:30;;;;;;;21.13;10.02;;;2.80;99.90;;;;;;5097308;28;20058;-70
2021/01/06 10:11:11;;;;;;;19.80;9.75;;;2.90;99.90;;;;;;5073596;28;20035;-67
2021/01/06 10:13:56;;;;;;;18.85;9.88;;;2.90;99.90;;;;;;5086725;28;20036;-68
2021/01/06 10:16:31;;;;;;;20.92;10.80;;;2.90;99.90;;;;;;5090701;28;20016;-67
2021/01/06 10:19:11;;;;;;;19.50;9.77;;;2.90;99.90;;;;;;5105040;28;20043;-69
2021/01/06 10:22:04;;;;;;;25.60;10.45;;;3.00;99.90;;;;;;5100870;28;20019;-67
2021/01/06 10:24:44;;;;;;;20.77;10.00;;;3.00;99.90;;;;;;5108023;28;20022;-69
2021/01/06 10:27:16;;;;;;;20.85;10.15;;;3.10;99.90;;;;;;5106864;28;20468;-66
2021/01/06 10:29:51;;;;;;;19.95;9.13;;;3.00;99.90;;;;;;5087594;28;20491;-67
2021/01/06 10:32:19;;;;;;;23.17;10.30;;;3.00;99.90;;;;;;5081481;28;20035;-67
2021/01/06 10:34:48;;;;;;;17.95;9.13;;;3.00;99.90;;;;;;5077887;28;20032;-67
2021/01/06 10:37:25;;;;;;;18.25;9.98;;;3.00;99.90;;;;;;5072076;28;20055;-67
2021/01/06 10:39:54;;;;;;;22.45;10.93;;;3.00;99.90;;;;;;5089200;28;20496;-66
2021/01/06 10:42:23;;;;;;;20.30;10.75;;;3.00;99.90;;;;;;5071470;28;20036;-67
2021/01/06 10:45:07;;;;;;;18.17;9.80;;;3.10;99.90;;;;;;5087682;28;20116;-68
2021/01/06 10:47:33;;;;;;;18.33;9.20;;;3.00;99.90;;;;;;5089903;28;20495;-67
2021/01/06 10:49:59;;;;;;;20.88;9.77;;;3.00;99.90;;;;;;5089769;28;20028;-67
2021/01/06 10:53:00;;;;;;;20.10;9.30;;;3.10;99.90;;;;;;5071700;28;20024;-68
2021/01/06 10:55:37;;;;;;;17.65;9.95;;;3.00;99.90;;;;;;5084267;28;20023;-68
2021/01/06 10:58:13;;;;;;;20.13;9.88;;;3.10;99.90;;;;;;5093503;28;20036;-68
2021/01/06 11:01:09;;;;;;;16.35;8.77;;;3.00;99.90;;;;;;5092350;28;20020;-69
2021/01/06 11:03:58;;;;;;;16.30;9.57;;;3.00;99.90;;;;;;5113215;27;20047;-68
2021/01/06 11:07:10;;;;;;;17.10;8.77;;;3.10;99.90;;;;;;5126450;27;20159;-67
2021/01/06 11:09:54;;;;;;;21.25;9.15;;;3.20;99.90;;;;;;5112198;27;20015;-67
2021/01/06 11:12:20;;;;;;;17.20;8.95;;;3.30;99.90;;;;;;5110189;27;20032;-69
2021/01/06 11:15:10;;;;;;;21.02;9.90;;;3.20;99.90;;;;;;5110063;28;20407;-67
2021/01/06 11:17:43;;;;;;;17.20;9.15;;;3.20;99.90;;;;;;5107339;28;20092;-69
2021/01/06 11:20:32;;;;;;;22.45;9.68;;;3.30;99.90;;;;;;5111424;27;20610;-68
2021/01/06 11:23:30;;;;;;;19.25;9.90;;;3.30;99.90;;;;;;5110593;27;20043;-68
2021/01/06 11:26:20;;;;;;;18.02;9.75;;;3.20;99.90;;;;;;5112671;27;20054;-67
2021/01/06 11:29:04;;;;;;;20.42;9.65;;;3.30;99.90;;;;;;5110056;27;20024;-68
2021/01/06 11:31:33;;;;;;;17.63;9.43;;;3.20;99.90;;;;;;5109199;28;20037;-67
2021/01/06 11:34:22;;;;;;;21.33;9.32;;;3.30;99.90;;;;;;5111333;27;20085;-66
2021/01/06 11:37:13;;;;;;;17.25;9.20;;;3.20;99.90;;;;;;5099929;28;20139;-67
2021/01/06 11:39:47;;;;;;;20.02;10.57;;;3.20;99.90;;;;;;5110422;27;20084;-68
2021/01/06 11:42:22;;;;;;;18.45;9.35;;;3.20;99.90;;;;;;5109394;28;20422;-67
2021/01/06 11:45:12;;;;;;;17.20;9.20;;;3.10;99.90;;;;;;5109565;28;20099;-67
2021/01/06 11:47:52;;;;;;;15.00;9.43;;;3.10;99.90;;;;;;5103396;28;20019;-66
2021/01/06 11:50:38;;;;;;;19.77;10.40;;;3.10;99.90;;;;;;5105997;28;20027;-66
2021/01/06 11:53:14;;;;;;;19.58;9.80;;;3.10;99.90;;;;;;5113322;27;20050;-66
2021/01/06 11:55:48;;;;;;;14.60;9.10;;;3.20;99.90;;;;;;5092981;28;20019;-69
2021/01/06 11:58:36;;;;;;;18.42;9.38;;;3.20;99.90;;;;;;5112107;27;20110;-68
2021/01/06 12:01:20;;;;;;;21.00;9.52;;;3.20;99.90;;;;;;5102662;27;20059;-69
2021/01/06 12:04:21;;;;;;;19.45;9.95;;;3.40;99.90;;;;;;5098821;27;20039;-67
2021/01/06 12:07:03;;;;;;;18.83;9.38;;;3.20;99.90;;;;;;5092411;28;20493;-67
2021/01/06 12:09:54;;;;;;;17.25;9.75;;;3.30;99.90;;;;;;5088731;28;20035;-68
2021/01/06 12:12:48;;;;;;;19.42;9.75;;;3.20;99.90;;;;;;5088279;28;20047;-67
2021/01/06 12:15:29;;;;;;;18.42;10.43;;;3.30;99.90;;;;;;5088524;28;20024;-67
2021/01/06 12:17:59;;;;;;;13.65;8.85;;;3.20;99.90;;;;;;5087839;28;20020;-66
2021/01/06 12:20:31;;;;;;;20.80;9.95;;;3.20;99.90;;;;;;5088579;28;20024;-68
2021/01/06 12:23:15;;;;;;;21.48;10.25;;;3.30;99.90;;;;;;5080395;28;20028;-67
2021/01/06 12:26:28;;;;;;;17.52;9.25;;;3.20;99.90;;;;;;5088344;28;20073;-67
2021/01/06 12:28:57;;;;;;;17.65;9.85;;;3.30;99.90;;;;;;5015958;28;20032;-66
2021/01/06 12:31:48;;;;;;;18.20;10.57;;;3.30;99.90;;;;;;5075123;28;20492;-67
2021/01/06 12:34:33;;;;;;;19.55;10.25;;;3.30;99.90;;;;;;5103465;28;20092;-67
2021/01/06 12:37:10;;;;;;;19.58;9.90;;;3.30;99.90;;;;;;5067438;28;20036;-66
2021/01/06 12:39:44;;;;;;;18.77;10.13;;;3.20;99.90;;;;;;5089439;28;20020;-69
2021/01/06 12:42:35;;;;;;;18.02;9.93;;;3.30;99.90;;;;;;5086857;28;20020;-67
2021/01/06 12:45:09;;;;;;;17.23;8.98;;;3.30;99.90;;;;;;5097597;28;20469;-66
2021/01/06 12:47:44;;;;;;;16.85;9.82;;;3.40;99.90;;;;;;5102777;28;20015;-67
2021/01/06 12:50:12;;;;;;;19.38;8.70;;;3.30;99.90;;;;;;5067240;28;20081;-67
2021/01/06 12:52:41;;;;;;;18.35;8.75;;;3.40;99.90;;;;;;5097540;28;20024;-68
2021/01/06 12:55:15;;;;;;;18.88;9.95;;;3.40;99.90;;;;;;5091646;28;20499;-67
2021/01/06 12:57:46;;;;;;;18.83;9.63;;;3.40;99.90;;;;;;5099866;28;20094;-67
2021/01/06 13:00:32;;;;;;;17.33;8.05;;;3.40;99.90;;;;;;5074493;28;20016;-67
2021/01/06 13:03:23;;;;;;;17.67;8.65;;;3.40;99.90;;;;;;5070362;28;20082;-67
2021/01/06 13:05:53;;;;;;;20.75;8.35;;;3.50;99.90;;;;;;5125070;27;20038;-67
2021/01/06 13:08:53;;;;;;;13.55;8.27;;;3.50;99.90;;;;;;5100005;28;20066;-68
2021/01/06 13:11:27;;;;;;;15.32;7.97;;;3.50;99.90;;;;;;5103100;28;20488;-67
2021/01/06 13:14:04;;;;;;;14.98;8.02;;;3.40;99.90;;;;;;5108818;28;20484;-69
2021/01/06 13:16:37;;;;;;;16.30;8.75;;;3.40;99.90;;;;;;5094175;28;20028;-69
2021/01/06 13:19:22;;;;;;;16.30;8.43;;;3.40;99.90;;;;;;5112942;28;20027;-67
2021/01/06 13:22:05;;;;;;;16.73;7.28;;;3.50;99.90;;;;;;5111027;28;20034;-67
2021/01/06 13:24:34;;;;;;;13.25;6.57;;;3.50;99.90;;;;;;5112298;28;20020;-68
2021/01/06 13:27:05;;;;;;;19.58;7.55;;;3.50;99.90;;;;;;5112188;28;20028;-68
2021/01/06 13:29:56;;;;;;;15.32;7.43;;;3.50;99.90;;;;;;5127709;27;20068;-68
2021/01/06 13:32:50;;;;;;;13.60;7.05;;;3.50;99.90;;;;;;5129507;27;20440;-68